createdAt,value
2019-02-28T00:01:54.133Z,10.87
2019-02-28T00:04:22.316Z,10.23
2019-02-28T00:06:50.528Z,10.77
2019-02-28T00:09:18.734Z,10.07
2019-02-28T00:11:46.923Z,10.70
2019-02-28T00:14:15.154Z,11.07
2019-02-28T00:16:43.367Z,10.93
2019-02-28T00:19:11.583Z,10.63
2019-02-28T00:21:40.655Z,10.10
2019-02-28T00:24:09.544Z,10.90
2019-02-28T00:26:37.761Z,10.97
2019-02-28T00:29:05.990Z,10.20
2019-02-28T00:31:34.172Z,10.80
2019-02-28T00:34:05.364Z,10.10
2019-02-28T00:36:32.275Z,9.73
2019-02-28T00:39:00.747Z,9.93
2019-02-28T00:41:28.964Z,9.60
2019-02-28T00:43:57.924Z,9.67
2019-02-28T00:46:26.253Z,9.10
2019-02-28T00:48:54.431Z,9.70
2019-02-28T00:51:22.676Z,10.17
2019-02-28T00:53:50.891Z,9.17
2019-02-28T00:56:20.737Z,9.40
2019-02-28T00:58:48.988Z,10.20
2019-02-28T01:01:17.176Z,9.03
2019-02-28T01:03:45.403Z,9.30
2019-02-28T01:06:13.584Z,9.23
2019-02-28T01:08:41.805Z,9.30
2019-02-28T01:11:10.323Z,9.40
2019-02-28T01:13:39.917Z,9.10
2019-02-28T01:16:09.093Z,9.20
2019-02-28T01:18:37.271Z,9.63
2019-02-28T01:21:05.489Z,8.77
2019-02-28T01:23:33.670Z,8.40
2019-02-28T01:26:01.878Z,8.90
2019-02-28T01:28:30.082Z,8.87
2019-02-28T01:30:58.302Z,9.53
2019-02-28T01:33:26.513Z,8.83
2019-02-28T01:35:54.688Z,9.17
2019-02-28T01:38:23.946Z,8.07
2019-02-28T01:40:52.865Z,8.93
2019-02-28T01:43:21.069Z,9.90
2019-02-28T01:45:49.246Z,8.90
2019-02-28T01:48:17.465Z,9.27
2019-02-28T01:50:45.673Z,9.23
2019-02-28T01:53:18.683Z,9.00
2019-02-28T01:55:43.805Z,9.53
2019-02-28T01:58:16.276Z,8.67
2019-02-28T02:00:41.878Z,8.70
2019-02-28T02:03:10.194Z,8.53
2019-02-28T02:05:38.456Z,8.67
2019-02-28T02:08:07.417Z,8.30
2019-02-28T02:10:35.805Z,9.43
2019-02-28T02:13:04.339Z,8.80
2019-02-28T02:15:32.601Z,8.60
2019-02-28T02:18:00.780Z,8.20
2019-02-28T02:20:29.017Z,8.47
2019-02-28T02:22:57.196Z,8.50
2019-02-28T02:25:25.434Z,8.63
2019-02-28T02:27:54.039Z,9.30
2019-02-28T02:30:23.113Z,9.43
2019-02-28T02:32:51.628Z,8.60
2019-02-28T02:35:19.896Z,9.30
2019-02-28T02:37:48.101Z,8.00
2019-02-28T02:40:16.577Z,9.07
2019-02-28T02:42:48.416Z,8.80
2019-02-28T02:45:14.854Z,8.97
2019-02-28T02:47:43.034Z,8.60
2019-02-28T02:50:12.224Z,7.30
2019-02-28T02:52:40.498Z,9.33
2019-02-28T02:55:08.759Z,8.67
2019-02-28T02:57:37.002Z,8.50
2019-02-28T03:00:13.346Z,9.30
2019-02-28T03:02:36.657Z,9.10
2019-02-28T03:05:05.529Z,9.23
2019-02-28T03:07:33.768Z,9.60
2019-02-28T03:10:02.036Z,9.63
2019-02-28T03:12:31.592Z,9.37
2019-02-28T03:15:00.503Z,10.10
2019-02-28T03:17:28.862Z,9.73
2019-02-28T03:19:57.065Z,9.80
2019-02-28T03:22:29.760Z,10.60
2019-02-28T03:24:55.202Z,10.40
2019-02-28T03:27:23.382Z,10.43
2019-02-28T03:29:51.645Z,10.27
2019-02-28T03:32:19.858Z,9.70
2019-02-28T03:34:55.393Z,10.70
2019-02-28T03:37:18.017Z,9.90
2019-02-28T03:39:46.268Z,11.73
2019-02-28T03:42:14.464Z,11.80
2019-02-28T03:44:42.726Z,10.60
2019-02-28T03:47:10.943Z,11.80
2019-02-28T03:49:39.154Z,11.90
2019-02-28T03:52:07.380Z,12.40
2019-02-28T03:54:35.601Z,12.10
2019-02-28T03:57:03.817Z,11.93
2019-02-28T03:59:32.282Z,11.30
2019-02-28T04:02:00.493Z,11.30
2019-02-28T04:04:28.677Z,11.63
2019-02-28T04:06:56.945Z,11.50
2019-02-28T04:09:25.162Z,11.47
2019-02-28T04:11:53.420Z,12.07
2019-02-28T04:14:21.613Z,12.33
2019-02-28T04:16:54.141Z,12.13
2019-02-28T04:19:22.630Z,12.30
2019-02-28T04:21:49.641Z,12.63
2019-02-28T04:24:17.853Z,14.37
2019-02-28T04:26:46.041Z,13.80
2019-02-28T04:29:14.286Z,14.50
2019-02-28T04:31:42.501Z,14.50
2019-02-28T04:34:13.384Z,14.00
2019-02-28T04:36:40.629Z,13.83
2019-02-28T04:39:08.932Z,14.37
2019-02-28T04:41:37.149Z,16.07
2019-02-28T04:44:05.328Z,14.93
2019-02-28T04:46:33.539Z,15.90
2019-02-28T04:49:01.726Z,15.20
2019-02-28T04:51:29.966Z,15.93
2019-02-28T04:53:58.179Z,16.30
2019-02-28T04:56:26.470Z,16.93
2019-02-28T04:58:56.449Z,18.37
2019-02-28T05:01:24.569Z,16.57
2019-02-28T05:03:52.814Z,17.17
2019-02-28T05:06:21.817Z,17.43
2019-02-28T05:08:50.243Z,19.10
2019-02-28T05:11:18.479Z,17.53
2019-02-28T05:13:48.766Z,19.07
2019-02-28T05:16:17.665Z,19.10
2019-02-28T05:18:45.905Z,19.50
2019-02-28T05:21:16.604Z,19.53
2019-02-28T05:23:44.086Z,19.23
2019-02-28T05:26:12.267Z,20.57
2019-02-28T05:28:41.340Z,18.83
2019-02-28T05:31:09.773Z,18.70
2019-02-28T05:33:38.432Z,19.30
2019-02-28T05:36:07.941Z,20.07
2019-02-28T05:38:36.160Z,21.07
2019-02-28T05:41:04.367Z,20.10
2019-02-28T05:43:32.951Z,19.03
2019-02-28T05:46:01.281Z,19.43
2019-02-28T05:48:29.479Z,20.60
2019-02-28T05:50:57.724Z,19.50
2019-02-28T05:53:25.911Z,17.90
2019-02-28T05:55:58.808Z,19.80
2019-02-28T05:58:25.452Z,19.60
2019-02-28T06:00:53.636Z,20.40
2019-02-28T06:03:23.236Z,21.10
2019-02-28T06:05:51.453Z,21.23
2019-02-28T06:08:19.653Z,20.57
2019-02-28T06:10:47.963Z,20.17
2019-02-28T06:13:18.279Z,21.53
2019-02-28T06:15:46.068Z,22.47
2019-02-28T06:18:14.251Z,21.53
2019-02-28T06:20:42.463Z,22.10
2019-02-28T06:23:10.652Z,22.23
2019-02-28T06:25:38.868Z,22.30
2019-02-28T06:28:07.084Z,21.77
2019-02-28T06:30:35.296Z,23.37
2019-02-28T06:33:03.517Z,23.00
2019-02-28T06:35:31.773Z,23.00
2019-02-28T06:37:59.948Z,22.50
2019-02-28T06:40:32.616Z,22.33
2019-02-28T06:42:58.088Z,23.13
2019-02-28T06:45:26.305Z,24.40
2019-02-28T06:47:54.489Z,25.57
2019-02-28T06:50:22.730Z,23.17
2019-02-28T06:52:50.973Z,28.00
2019-02-28T06:55:20.900Z,26.53
2019-02-28T06:57:49.201Z,25.87
2019-02-28T07:00:17.413Z,26.17
2019-02-28T07:02:45.599Z,24.60
2019-02-28T07:05:13.821Z,25.30
2019-02-28T07:07:42.075Z,25.13
2019-02-28T07:10:14.033Z,27.07
2019-02-28T07:12:42.220Z,27.03
2019-02-28T07:15:10.719Z,28.10
2019-02-28T07:17:39.007Z,25.90
2019-02-28T07:20:11.572Z,27.40
2019-02-28T07:22:40.156Z,28.70
2019-02-28T07:25:09.512Z,26.70
2019-02-28T07:27:39.916Z,29.13
2019-02-28T07:30:09.657Z,26.70
2019-02-28T07:32:37.843Z,28.70
2019-02-28T07:35:06.353Z,29.60
2019-02-28T07:37:34.548Z,29.13
2019-02-28T07:40:02.927Z,30.80
2019-02-28T07:42:33.691Z,30.57
2019-02-28T07:45:01.122Z,29.50
2019-02-28T07:47:29.319Z,30.00
2019-02-28T07:49:57.535Z,30.73
2019-02-28T07:52:32.373Z,31.23
2019-02-28T07:54:55.911Z,32.17
2019-02-28T07:57:24.152Z,29.43
2019-02-28T07:59:52.401Z,28.97
2019-02-28T08:02:20.620Z,29.93
2019-02-28T08:04:50.668Z,30.03
2019-02-28T08:07:18.730Z,29.70
2019-02-28T08:09:46.957Z,33.30
2019-02-28T08:12:15.204Z,33.03
2019-02-28T08:14:43.553Z,32.27
2019-02-28T08:17:13.373Z,33.40
2019-02-28T08:19:41.661Z,33.60
2019-02-28T08:22:09.893Z,32.00
2019-02-28T08:24:38.076Z,32.40
2019-02-28T08:27:06.269Z,35.13
2019-02-28T08:29:34.460Z,37.23
2019-02-28T08:32:06.783Z,35.80
2019-02-28T08:34:32.584Z,31.43
2019-02-28T08:37:00.800Z,34.53
2019-02-28T08:39:28.990Z,34.43
2019-02-28T08:42:03.014Z,34.87
2019-02-28T08:44:27.169Z,35.03
2019-02-28T08:46:55.375Z,32.57
2019-02-28T08:49:23.588Z,33.00
2019-02-28T08:51:51.802Z,37.63
2019-02-28T08:54:26.323Z,38.43
2019-02-28T08:56:50.789Z,36.80
2019-02-28T08:59:22.365Z,33.93
2019-02-28T09:01:48.898Z,31.43
2019-02-28T09:04:17.104Z,33.77
2019-02-28T09:06:45.328Z,34.20
2019-02-28T09:09:14.654Z,36.07
2019-02-28T09:11:43.133Z,36.97
2019-02-28T09:14:11.358Z,36.47
2019-02-28T09:16:39.852Z,36.77
2019-02-28T09:19:08.535Z,36.70
2019-02-28T09:21:36.753Z,35.73
2019-02-28T09:24:05.018Z,35.13
2019-02-28T09:26:33.305Z,35.63
2019-02-28T09:29:01.521Z,37.07
2019-02-28T09:31:29.785Z,33.90
2019-02-28T09:33:58.868Z,35.23
2019-02-28T09:36:27.997Z,36.97
2019-02-28T09:38:57.214Z,36.83
2019-02-28T09:41:26.128Z,37.67
2019-02-28T09:43:56.839Z,34.73
2019-02-28T09:48:44.157Z,37.67
2019-02-28T09:51:12.335Z,38.47
2019-02-28T09:53:40.580Z,35.47
2019-02-28T09:56:09.467Z,35.00
2019-02-28T09:58:38.331Z,36.77
2019-02-28T10:01:06.525Z,34.50
2019-02-28T10:03:34.770Z,35.53
2019-02-28T10:06:03.065Z,34.40
2019-02-28T10:08:33.484Z,33.10
2019-02-28T10:11:01.181Z,35.40
2019-02-28T10:13:30.902Z,32.50
2019-02-28T10:16:01.102Z,32.20
2019-02-28T10:18:29.333Z,34.53
2019-02-28T10:20:59.015Z,33.93
2019-02-28T10:23:27.559Z,36.70
2019-02-28T10:25:55.778Z,34.53
2019-02-28T10:28:23.984Z,33.70
2019-02-28T10:30:52.168Z,32.77
2019-02-28T10:33:20.375Z,34.23
2019-02-28T10:35:48.599Z,33.70
2019-02-28T10:38:16.901Z,34.30
2019-02-28T10:40:45.131Z,33.20
2019-02-28T10:43:15.612Z,31.77
2019-02-28T10:45:43.252Z,29.83
2019-02-28T10:48:11.468Z,33.57
2019-02-28T10:50:39.689Z,30.97
2019-02-28T10:53:07.898Z,31.07
2019-02-28T10:55:36.356Z,33.00
2019-02-28T10:58:04.548Z,35.00
2019-02-28T11:00:41.080Z,34.00
2019-02-28T11:03:09.302Z,33.13
2019-02-28T11:05:38.653Z,31.63
2019-02-28T11:08:09.802Z,33.87
2019-02-28T11:10:38.618Z,34.37
2019-02-28T11:13:08.375Z,34.20
2019-02-28T11:18:08.579Z,31.33
2019-02-28T11:20:34.408Z,34.73
2019-02-28T11:23:02.798Z,30.73
2019-02-28T11:25:34.644Z,27.00
2019-02-28T11:28:01.142Z,30.03
2019-02-28T11:30:30.863Z,29.73
2019-02-28T11:33:03.061Z,31.23
2019-02-28T11:35:29.556Z,29.20
2019-02-28T11:37:57.850Z,30.93
2019-02-28T11:40:28.381Z,30.20
2019-02-28T11:42:59.503Z,30.80
2019-02-28T11:45:37.310Z,31.00
2019-02-28T11:48:07.093Z,30.00
2019-02-28T11:50:35.279Z,30.90
2019-02-28T11:53:05.916Z,31.40
2019-02-28T11:55:33.372Z,30.63
2019-02-28T11:58:01.659Z,30.33
2019-02-28T12:00:35.920Z,29.90
2019-02-28T12:03:05.498Z,30.40
2019-02-28T12:05:33.517Z,29.33
2019-02-28T12:08:01.733Z,29.87
2019-02-28T12:10:29.963Z,31.37
2019-02-28T12:12:58.151Z,30.00
2019-02-28T12:15:37.956Z,30.63
2019-02-28T12:18:06.740Z,30.00
2019-02-28T12:20:34.918Z,31.23
2019-02-28T12:23:03.318Z,28.53
2019-02-28T12:25:31.568Z,31.57
2019-02-28T12:28:02.749Z,30.73
2019-02-28T12:30:30.640Z,32.20
2019-02-28T12:32:58.840Z,30.80
2019-02-28T12:35:27.032Z,31.50
2019-02-28T12:37:55.353Z,32.20
2019-02-28T12:40:25.107Z,30.10
2019-02-28T12:42:53.344Z,32.07
2019-02-28T12:45:24.403Z,32.43
2019-02-28T12:47:52.970Z,29.97
2019-02-28T12:50:21.178Z,32.23
2019-02-28T12:52:50.133Z,31.90
2019-02-28T12:55:20.760Z,31.20
2019-02-28T12:57:48.970Z,28.57
2019-02-28T13:00:19.948Z,28.25
2019-02-28T13:02:48.645Z,28.65
2019-02-28T13:05:16.848Z,31.37
2019-02-28T13:07:45.067Z,28.47
2019-02-28T13:10:26.742Z,29.25
2019-02-28T13:12:52.509Z,30.27
2019-02-28T13:15:20.897Z,32.77
2019-02-28T13:17:49.181Z,31.00
2019-02-28T13:20:21.445Z,30.80
2019-02-28T13:22:49.657Z,30.80
2019-02-28T13:25:19.398Z,30.80
2019-02-28T13:30:16.112Z,33.85
2019-02-28T13:32:45.289Z,33.20
2019-02-28T13:35:14.674Z,30.33
2019-02-28T13:37:44.750Z,32.27
2019-02-28T13:40:13.973Z,33.23
2019-02-28T13:42:42.389Z,31.90
2019-02-28T13:45:14.877Z,33.10
2019-02-28T13:47:42.143Z,32.93
2019-02-28T13:50:32.566Z,32.83
2019-02-28T13:53:04.509Z,30.37
2019-02-28T13:55:31.203Z,31.47
2019-02-28T13:57:59.491Z,32.10
2019-02-28T14:00:28.801Z,31.47
2019-02-28T14:02:57.858Z,35.33
2019-02-28T14:05:26.076Z,33.57
2019-02-28T14:07:54.314Z,32.50
2019-02-28T14:12:53.189Z,31.70
2019-02-28T14:15:21.294Z,31.33
2019-02-28T14:17:49.533Z,33.37
2019-02-28T14:20:17.788Z,33.77
2019-02-28T14:22:46.625Z,34.40
2019-02-28T14:25:14.909Z,33.03
2019-02-28T14:27:43.204Z,31.40
2019-02-28T14:30:12.597Z,32.90
2019-02-28T14:32:42.274Z,33.20
2019-02-28T14:35:14.928Z,32.90
2019-02-28T14:37:43.113Z,34.67
2019-02-28T14:40:17.907Z,31.80
2019-02-28T14:42:44.824Z,32.00
2019-02-28T14:45:17.440Z,33.17
2019-02-28T14:47:45.658Z,32.83
2019-02-28T14:50:15.378Z,33.63
2019-02-28T14:52:44.243Z,34.33
2019-02-28T14:55:13.799Z,32.90
2019-02-28T14:57:42.010Z,32.87
2019-02-28T15:00:11.838Z,32.63
2019-02-28T15:02:40.048Z,33.23
2019-02-28T15:05:09.538Z,34.37
2019-02-28T15:07:38.682Z,31.00
2019-02-28T15:10:09.482Z,33.80
2019-02-28T15:12:37.703Z,32.53
2019-02-28T15:15:07.466Z,32.53
2019-02-28T15:17:38.701Z,33.73
2019-02-28T15:20:06.576Z,35.57
2019-02-28T15:22:34.765Z,35.50
2019-02-28T15:25:04.384Z,35.93
2019-02-28T15:27:32.730Z,36.57
2019-02-28T15:30:00.945Z,37.20
2019-02-28T15:32:29.175Z,36.30
2019-02-28T15:34:57.352Z,37.70
2019-02-28T15:37:25.601Z,36.27
2019-02-28T15:39:53.785Z,35.03
2019-02-28T15:42:21.996Z,33.47
2019-02-28T15:44:50.222Z,37.40
2019-02-28T15:47:19.390Z,34.73
2019-02-28T15:49:48.338Z,35.60
2019-02-28T15:52:16.549Z,34.60
2019-02-28T15:54:44.772Z,35.37
2019-02-28T15:57:12.957Z,37.43
2019-02-28T15:59:41.234Z,36.17
2019-02-28T16:02:09.492Z,36.33
2019-02-28T16:04:37.712Z,34.67
2019-02-28T16:07:05.941Z,36.77
2019-02-28T16:09:34.153Z,37.30
2019-02-28T16:12:02.454Z,34.87
2019-02-28T16:14:31.552Z,33.23
2019-02-28T16:17:03.392Z,33.90
2019-02-28T16:19:30.530Z,34.63
2019-02-28T16:21:58.716Z,32.90
2019-02-28T16:24:27.014Z,33.80
2019-02-28T16:26:56.746Z,37.17
2019-02-28T16:29:25.138Z,31.60
2019-02-28T16:31:53.417Z,32.13
2019-02-28T16:34:21.649Z,34.07
2019-02-28T16:36:49.919Z,38.80
2019-02-28T16:39:18.312Z,38.10
2019-02-28T16:41:46.656Z,37.57
2019-02-28T16:44:14.857Z,35.77
2019-02-28T16:46:43.125Z,32.80
2019-02-28T16:49:11.345Z,38.60
2019-02-28T16:51:39.562Z,39.73
2019-02-28T16:54:07.777Z,37.33
2019-02-28T16:56:37.609Z,38.70
2019-02-28T16:59:05.957Z,40.93
2019-02-28T17:01:34.250Z,39.50
2019-02-28T17:04:02.446Z,39.27
2019-02-28T17:06:32.601Z,42.33
2019-02-28T17:09:02.320Z,42.87
2019-02-28T17:11:30.543Z,44.80
2019-02-28T17:14:03.111Z,43.70
2019-02-28T17:16:37.095Z,44.30
2019-02-28T17:19:05.820Z,44.63
2019-02-28T17:21:34.069Z,43.17
2019-02-28T17:24:02.256Z,43.20
2019-02-28T17:26:34.818Z,42.17
2019-02-28T17:29:11.648Z,40.23
2019-02-28T17:31:44.440Z,42.47
2019-02-28T17:34:13.657Z,42.77
2019-02-28T17:36:44.103Z,45.30
2019-02-28T17:39:14.912Z,42.37
2019-02-28T17:41:41.682Z,43.03
2019-02-28T17:44:11.489Z,46.27
2019-02-28T17:46:39.681Z,42.30
2019-02-28T17:49:26.401Z,43.07
2019-02-28T17:51:58.508Z,42.20
2019-02-28T17:54:31.392Z,43.37
2019-02-28T17:57:07.408Z,42.43
2019-02-28T17:59:46.626Z,42.60
2019-02-28T18:02:28.672Z,42.97
2019-02-28T18:05:10.325Z,41.27
2019-02-28T18:07:57.781Z,44.63
2019-02-28T18:10:45.103Z,43.33
2019-02-28T18:13:21.165Z,43.03
2019-02-28T18:16:00.005Z,44.07
2019-02-28T18:18:35.496Z,42.63
2019-02-28T18:21:10.960Z,44.17
2019-02-28T18:23:40.729Z,44.67
2019-02-28T18:26:10.497Z,42.17
2019-02-28T18:28:40.257Z,43.57
2019-02-28T18:31:09.195Z,44.93
2019-02-28T18:33:38.556Z,43.70
2019-02-28T18:36:08.339Z,44.17
2019-02-28T18:38:37.452Z,40.73
2019-02-28T18:41:06.551Z,41.03
2019-02-28T18:43:34.900Z,38.43
2019-02-28T18:46:03.156Z,40.50
2019-02-28T18:48:31.409Z,40.07
2019-02-28T18:50:59.625Z,39.70
2019-02-28T18:53:27.845Z,40.30
2019-02-28T18:55:56.260Z,40.17
2019-02-28T18:58:24.449Z,40.70
2019-02-28T19:00:52.681Z,40.57
2019-02-28T19:03:20.880Z,40.40
2019-02-28T19:05:49.110Z,39.20
2019-02-28T19:08:17.453Z,39.80
2019-02-28T19:10:45.669Z,42.43
2019-02-28T19:13:13.889Z,41.37
2019-02-28T19:15:42.133Z,39.73
2019-02-28T19:18:10.420Z,39.80
2019-02-28T19:20:38.645Z,41.27
2019-02-28T19:23:06.901Z,43.50
2019-02-28T19:25:35.121Z,42.53
2019-02-28T19:28:03.335Z,41.63
2019-02-28T19:30:31.613Z,44.63
2019-02-28T19:32:59.801Z,43.10
2019-02-28T19:35:28.026Z,41.67
2019-02-28T19:37:56.261Z,43.80
2019-02-28T19:40:24.480Z,39.97
2019-02-28T19:42:52.701Z,43.07
2019-02-28T19:45:22.713Z,42.73
2019-02-28T19:47:50.963Z,43.00
2019-02-28T19:50:19.177Z,43.20
2019-02-28T19:52:47.538Z,42.97
2019-02-28T19:55:15.795Z,41.97
2019-02-28T19:57:44.023Z,40.40
2019-02-28T20:00:13.607Z,44.57
2019-02-28T20:02:41.799Z,42.90
2019-02-28T20:05:10.581Z,42.80
2019-02-28T20:07:38.814Z,42.07
2019-02-28T20:10:09.001Z,40.80
2019-02-28T20:12:37.184Z,42.40
2019-02-28T20:15:06.410Z,42.37
2019-02-28T20:17:34.628Z,39.47
2019-02-28T20:20:03.250Z,40.30
2019-02-28T20:22:31.436Z,40.10
2019-02-28T20:24:59.674Z,45.53
2019-02-28T20:27:27.862Z,44.63
2019-02-28T20:29:56.089Z,41.90
2019-02-28T20:32:24.332Z,40.17
2019-02-28T20:34:52.553Z,39.93
2019-02-28T20:37:20.802Z,40.70
2019-02-28T20:39:48.992Z,40.60
2019-02-28T20:42:17.220Z,36.73
2019-02-28T20:44:45.418Z,36.93
2019-02-28T20:47:13.641Z,38.63
2019-02-28T20:49:41.868Z,37.50
2019-02-28T20:52:10.092Z,39.40
2019-02-28T20:54:38.279Z,38.40
2019-02-28T20:57:06.479Z,35.93
2019-02-28T20:59:34.678Z,38.67
2019-02-28T21:02:02.905Z,35.40
2019-02-28T21:04:31.197Z,35.53
2019-02-28T21:06:59.391Z,33.77
2019-02-28T21:09:27.612Z,35.03
2019-02-28T21:11:55.845Z,38.07
2019-02-28T21:14:24.061Z,37.13
2019-02-28T21:16:52.294Z,34.30
2019-02-28T21:19:20.485Z,36.20
2019-02-28T21:21:48.708Z,34.10
2019-02-28T21:24:16.899Z,33.80
2019-02-28T21:26:45.157Z,34.43
2019-02-28T21:29:13.378Z,33.47
2019-02-28T21:31:50.601Z,34.47
2019-02-28T21:34:18.829Z,34.70
2019-02-28T21:36:47.169Z,34.80
2019-02-28T21:39:15.389Z,32.93
2019-02-28T21:41:43.576Z,33.80
2019-02-28T21:44:11.907Z,32.67
2019-02-28T21:46:40.117Z,31.73
2019-02-28T21:49:08.314Z,32.57
2019-02-28T21:51:36.538Z,32.80
2019-02-28T21:54:04.741Z,30.27
2019-02-28T21:56:32.961Z,32.20
2019-02-28T21:59:01.156Z,32.07
2019-02-28T22:01:29.368Z,29.87
2019-02-28T22:03:57.556Z,29.77
2019-02-28T22:06:25.796Z,27.30
2019-02-28T22:08:53.976Z,28.30
2019-02-28T22:11:22.222Z,27.13
2019-02-28T22:13:50.436Z,27.47
2019-02-28T22:16:18.664Z,26.93
2019-02-28T22:18:46.848Z,27.30
2019-02-28T22:21:15.071Z,26.40
2019-02-28T22:23:43.314Z,23.80
2019-02-28T22:26:11.553Z,26.47
2019-02-28T22:28:39.799Z,23.77
2019-02-28T22:31:12.327Z,26.10
2019-02-28T22:33:42.186Z,25.03
2019-02-28T22:36:12.054Z,26.30
2019-02-28T22:38:40.297Z,24.23
2019-02-28T22:41:08.582Z,24.40
2019-02-28T22:43:36.826Z,26.13
2019-02-28T22:46:05.012Z,25.23
2019-02-28T22:48:33.224Z,25.80
2019-02-28T22:51:01.439Z,26.20
2019-02-28T22:53:29.680Z,25.80
2019-02-28T22:55:57.964Z,25.27
2019-02-28T22:58:26.216Z,25.57
2019-02-28T23:01:00.548Z,23.83
2019-02-28T23:03:29.936Z,25.63
2019-02-28T23:05:58.460Z,23.97
2019-02-28T23:08:26.646Z,25.13
2019-02-28T23:10:54.893Z,24.47
2019-02-28T23:13:23.077Z,24.03
2019-02-28T23:15:51.292Z,24.30
2019-02-28T23:18:19.509Z,24.97
2019-02-28T23:20:47.716Z,23.73
2019-02-28T23:23:15.939Z,24.70
2019-02-28T23:25:44.133Z,25.20
2019-02-28T23:28:13.491Z,26.70
2019-02-28T23:31:00.106Z,26.30
2019-02-28T23:33:28.284Z,25.30
2019-02-28T23:35:56.492Z,25.90
2019-02-28T23:38:24.749Z,24.77
2019-02-28T23:40:54.501Z,25.63
2019-02-28T23:43:22.685Z,27.03
2019-02-28T23:45:50.929Z,25.80
2019-02-28T23:48:19.155Z,24.03
2019-02-28T23:50:47.375Z,26.10
2019-02-28T23:53:15.721Z,26.10
2019-02-28T23:55:43.905Z,25.57
2019-02-28T23:58:12.099Z,25.23
